createdAt,value
2017-10-03T00:00:19.722Z,8.0
2017-10-03T00:01:21.375Z,8.3
2017-10-03T00:02:23.034Z,8.2
2017-10-03T00:03:24.688Z,7.8
2017-10-03T00:04:26.340Z,6.2
2017-10-03T00:05:27.999Z,6.6
2017-10-03T00:06:29.659Z,6.1
2017-10-03T00:07:31.319Z,5.7
2017-10-03T00:08:32.978Z,5.7
2017-10-03T00:09:34.633Z,6.0
2017-10-03T00:10:36.291Z,5.5
2017-10-03T00:11:37.937Z,6.1
2017-10-03T00:12:39.598Z,6.2
2017-10-03T00:13:41.250Z,5.9
2017-10-03T00:14:42.934Z,6.1
2017-10-03T00:15:44.597Z,5.8
2017-10-03T00:16:46.267Z,5.7
2017-10-03T00:17:47.927Z,5.5
2017-10-03T00:18:49.571Z,5.7
2017-10-03T00:19:51.221Z,5.4
2017-10-03T00:20:52.880Z,6.2
2017-10-03T00:21:54.536Z,6.0
2017-10-03T00:22:56.198Z,5.9
2017-10-03T00:23:57.859Z,5.4
2017-10-03T00:24:59.515Z,6.5
2017-10-03T00:26:01.178Z,5.3
2017-10-03T00:27:02.833Z,5.5
2017-10-03T00:28:04.488Z,5.7
2017-10-03T00:29:06.139Z,6.2
2017-10-03T00:30:07.801Z,5.9
2017-10-03T00:31:09.450Z,5.5
2017-10-03T00:32:11.110Z,5.6
2017-10-03T00:33:12.763Z,5.5
2017-10-03T00:34:14.489Z,5.6
2017-10-03T00:35:16.095Z,6.3
2017-10-03T00:36:17.755Z,5.3
2017-10-03T00:37:19.408Z,5.5
2017-10-03T00:38:21.065Z,5.3
2017-10-03T00:39:22.726Z,5.3
2017-10-03T00:40:24.377Z,5.7
2017-10-03T00:41:26.027Z,5.5
2017-10-03T00:42:27.682Z,5.8
2017-10-03T00:43:29.339Z,5.2
2017-10-03T00:44:30.988Z,5.8
2017-10-03T00:45:32.650Z,4.8
2017-10-03T00:46:34.305Z,5.4
2017-10-03T00:47:35.963Z,5.8
2017-10-03T00:48:37.614Z,6.0
2017-10-03T00:49:39.276Z,5.7
2017-10-03T00:50:40.932Z,5.4
2017-10-03T00:51:42.633Z,6.3
2017-10-03T00:52:44.311Z,4.7
2017-10-03T00:53:45.966Z,5.6
2017-10-03T00:54:47.624Z,5.5
2017-10-03T00:55:49.275Z,5.4
2017-10-03T00:56:50.932Z,5.6
2017-10-03T00:57:52.578Z,5.9
2017-10-03T00:58:54.228Z,5.7
2017-10-03T00:59:55.884Z,5.1
2017-10-03T01:00:57.542Z,5.8
2017-10-03T01:01:59.231Z,5.1
2017-10-03T01:03:00.875Z,5.8
2017-10-03T01:04:02.533Z,5.2
2017-10-03T01:05:04.188Z,5.3
2017-10-03T01:06:05.835Z,5.1
2017-10-03T01:07:07.490Z,5.0
2017-10-03T01:08:09.153Z,5.1
2017-10-03T01:09:10.804Z,4.6
2017-10-03T01:10:12.462Z,5.8
2017-10-03T01:11:14.120Z,4.9
2017-10-03T01:12:15.792Z,4.9
2017-10-03T01:13:17.443Z,5.0
2017-10-03T01:14:19.100Z,5.0
2017-10-03T01:15:20.754Z,4.9
2017-10-03T01:16:22.402Z,5.5
2017-10-03T01:17:24.053Z,5.0
2017-10-03T01:18:25.713Z,5.6
2017-10-03T01:19:27.368Z,4.5
2017-10-03T01:20:29.029Z,4.8
2017-10-03T01:21:30.695Z,4.6
2017-10-03T01:22:32.349Z,4.9
2017-10-03T01:23:33.996Z,4.5
2017-10-03T01:24:35.653Z,4.7
2017-10-03T01:25:37.300Z,4.6
2017-10-03T01:26:38.955Z,4.3
2017-10-03T01:27:40.616Z,4.3
2017-10-03T01:28:42.267Z,4.6
2017-10-03T01:29:43.931Z,5.4
2017-10-03T01:30:45.626Z,4.7
2017-10-03T01:31:47.276Z,5.7
2017-10-03T01:32:48.933Z,4.8
2017-10-03T01:33:50.582Z,5.1
2017-10-03T01:34:52.242Z,4.8
2017-10-03T01:35:53.893Z,4.9
2017-10-03T01:36:55.553Z,5.0
2017-10-03T01:37:57.211Z,5.2
2017-10-03T01:38:58.855Z,5.2
2017-10-03T01:40:00.541Z,5.5
2017-10-03T01:41:02.193Z,4.8
2017-10-03T01:42:03.855Z,5.4
2017-10-03T01:43:05.512Z,5.5
2017-10-03T01:44:07.168Z,5.9
2017-10-03T01:45:08.837Z,5.6
2017-10-03T01:46:10.491Z,5.2
2017-10-03T01:47:12.146Z,6.8
2017-10-03T01:48:13.797Z,6.1
2017-10-03T01:49:15.449Z,6.1
2017-10-03T01:50:17.110Z,5.9
2017-10-03T01:51:18.765Z,5.6
2017-10-03T01:52:20.415Z,5.4
2017-10-03T01:53:22.070Z,5.8
2017-10-03T01:54:23.726Z,5.4
2017-10-03T01:55:25.400Z,5.6
2017-10-03T02:01:50.481Z,6.2
2017-10-03T02:02:52.126Z,6.0
2017-10-03T02:03:53.775Z,6.3
2017-10-03T02:04:55.417Z,6.7
2017-10-03T02:05:57.082Z,6.6
2017-10-03T02:06:58.726Z,7.4
2017-10-03T02:08:00.378Z,6.7
2017-10-03T02:09:02.055Z,6.3
2017-10-03T02:10:03.705Z,6.0
2017-10-03T02:11:05.351Z,6.9
2017-10-03T02:12:06.998Z,6.6
2017-10-03T02:13:08.657Z,6.4
2017-10-03T02:14:10.316Z,6.2
2017-10-03T02:15:11.968Z,6.9
2017-10-03T02:16:13.627Z,6.2
2017-10-03T02:17:15.310Z,5.8
2017-10-03T02:18:16.960Z,7.1
2017-10-03T02:19:18.664Z,7.2
2017-10-03T02:20:20.317Z,7.9
2017-10-03T02:21:22.020Z,7.2
2017-10-03T02:22:23.678Z,6.6
2017-10-03T02:23:25.337Z,7.6
2017-10-03T02:24:26.991Z,7.3
2017-10-03T02:25:28.638Z,7.3
2017-10-03T02:26:30.287Z,7.7
2017-10-03T02:27:31.983Z,7.1
2017-10-03T02:28:33.633Z,7.5
2017-10-03T02:29:35.282Z,7.7
2017-10-03T02:30:36.935Z,7.7
2017-10-03T02:31:38.590Z,7.5
2017-10-03T02:32:40.243Z,7.9
2017-10-03T02:33:41.894Z,6.9
2017-10-03T02:34:43.548Z,7.2
2017-10-03T02:35:45.194Z,7.9
2017-10-03T02:36:46.866Z,7.3
2017-10-03T02:37:48.525Z,6.3
2017-10-03T02:38:50.206Z,7.8
2017-10-03T02:39:51.856Z,6.7
2017-10-03T02:40:53.530Z,7.6
2017-10-03T02:41:55.179Z,7.2
2017-10-03T02:42:56.835Z,7.2
2017-10-03T02:43:58.485Z,7.3
2017-10-03T02:45:00.137Z,7.5
2017-10-03T02:46:01.788Z,7.4
2017-10-03T02:47:03.445Z,7.2
2017-10-03T02:48:05.105Z,6.9
2017-10-03T02:49:06.761Z,7.5
2017-10-03T02:50:08.404Z,7.5
2017-10-03T02:51:10.063Z,6.2
2017-10-03T02:52:11.724Z,7.7
2017-10-03T02:53:13.374Z,7.6
2017-10-03T02:54:15.062Z,6.7
2017-10-03T02:55:16.720Z,7.4
2017-10-03T02:56:18.370Z,7.0
2017-10-03T02:57:20.031Z,6.7
2017-10-03T02:58:21.684Z,6.8
2017-10-03T02:59:23.340Z,6.7
2017-10-03T03:00:24.993Z,7.3
2017-10-03T03:01:26.657Z,7.8
2017-10-03T03:02:28.311Z,7.6
2017-10-03T03:03:29.960Z,7.6
2017-10-03T03:04:31.613Z,7.5
2017-10-03T03:05:33.289Z,8.3
2017-10-03T03:06:34.939Z,7.8
2017-10-03T03:07:36.603Z,7.4
2017-10-03T03:08:38.241Z,8.4
2017-10-03T03:09:39.892Z,7.5
2017-10-03T03:10:41.557Z,7.0
2017-10-03T03:11:43.219Z,6.8
2017-10-03T03:12:44.874Z,8.0
2017-10-03T03:13:46.532Z,8.0
2017-10-03T03:14:48.202Z,7.8
2017-10-03T03:15:49.859Z,7.8
2017-10-03T03:16:51.509Z,7.7
2017-10-03T03:17:53.153Z,7.8
2017-10-03T03:18:54.805Z,8.0
2017-10-03T03:19:56.458Z,8.4
2017-10-03T03:20:58.106Z,7.9
2017-10-03T03:21:59.759Z,8.3
2017-10-03T03:23:01.410Z,8.4
2017-10-03T03:24:03.074Z,9.2
2017-10-03T03:25:04.723Z,9.1
2017-10-03T03:26:06.381Z,8.9
2017-10-03T03:27:08.031Z,9.3
2017-10-03T03:28:09.679Z,9.3
2017-10-03T03:29:11.352Z,9.3
2017-10-03T03:30:13.006Z,9.7
2017-10-03T03:31:14.682Z,9.2
2017-10-03T03:32:16.336Z,8.3
2017-10-03T03:33:17.991Z,8.1
2017-10-03T03:34:19.634Z,8.1
2017-10-03T03:35:21.287Z,8.0
2017-10-03T03:36:22.939Z,8.0
2017-10-03T03:37:24.587Z,7.8
2017-10-03T03:38:26.240Z,8.1
2017-10-03T03:39:27.897Z,6.2
2017-10-03T03:40:29.562Z,7.6
2017-10-03T03:41:31.218Z,5.8
2017-10-03T03:42:32.874Z,6.5
2017-10-03T03:43:34.537Z,6.3
2017-10-03T03:44:36.195Z,5.7
2017-10-03T03:45:37.851Z,5.8
2017-10-03T03:46:39.497Z,6.1
2017-10-03T03:47:41.157Z,6.4
2017-10-03T03:48:42.809Z,6.3
2017-10-03T03:49:44.464Z,7.0
2017-10-03T03:50:46.116Z,6.4
2017-10-03T03:51:47.774Z,6.3
2017-10-03T03:52:49.418Z,6.6
2017-10-03T03:53:51.068Z,7.2
2017-10-03T03:54:52.769Z,6.5
2017-10-03T03:55:54.423Z,7.1
2017-10-03T03:56:56.074Z,6.4
2017-10-03T03:57:57.725Z,6.6
2017-10-03T03:58:59.374Z,6.2
2017-10-03T04:00:01.026Z,6.4
2017-10-03T04:01:02.674Z,6.5
2017-10-03T04:02:04.332Z,6.8
2017-10-03T04:03:05.978Z,6.6
2017-10-03T04:04:07.910Z,7.1
2017-10-03T04:05:09.997Z,7.0
2017-10-03T04:06:11.640Z,8.0
2017-10-03T04:07:13.297Z,6.9
2017-10-03T04:08:15.317Z,7.0
2017-10-03T04:09:16.937Z,7.4
2017-10-03T04:10:19.164Z,7.0
2017-10-03T04:11:21.107Z,5.7
2017-10-03T04:12:22.757Z,6.7
2017-10-03T04:13:24.813Z,6.0
2017-10-03T04:14:26.334Z,5.7
2017-10-03T04:15:27.985Z,4.2
2017-10-03T04:16:29.638Z,4.8
2017-10-03T04:17:31.296Z,4.7
2017-10-03T04:18:32.949Z,5.2
2017-10-03T04:19:34.597Z,4.3
2017-10-03T04:20:36.245Z,4.9
2017-10-03T04:21:37.905Z,5.4
2017-10-03T04:22:39.561Z,5.1
2017-10-03T04:23:41.213Z,5.2
2017-10-03T04:24:42.869Z,4.7
2017-10-03T04:25:44.519Z,5.4
2017-10-03T04:26:46.192Z,5.4
2017-10-03T04:27:47.834Z,4.8
2017-10-03T04:28:49.488Z,5.0
2017-10-03T04:29:51.136Z,4.4
2017-10-03T04:30:52.792Z,4.7
2017-10-03T04:31:54.447Z,4.9
2017-10-03T04:32:56.106Z,4.7
2017-10-03T04:33:57.763Z,5.0
2017-10-03T04:34:59.422Z,5.2
2017-10-03T04:36:01.076Z,5.2
2017-10-03T04:37:02.723Z,5.3
2017-10-03T04:38:04.378Z,4.4
2017-10-03T04:39:06.038Z,4.5
2017-10-03T04:40:07.686Z,3.9
2017-10-03T04:41:09.354Z,3.6
2017-10-03T04:42:10.998Z,3.7
2017-10-03T04:43:12.648Z,3.4
2017-10-03T04:44:14.305Z,3.1
2017-10-03T04:45:15.959Z,3.6
2017-10-03T04:46:17.638Z,3.2
2017-10-03T04:47:19.282Z,3.3
2017-10-03T04:48:20.929Z,3.2
2017-10-03T04:49:22.577Z,3.3
2017-10-03T04:50:24.239Z,3.6
2017-10-03T04:51:25.894Z,3.6
2017-10-03T04:52:27.553Z,3.5
2017-10-03T04:53:29.207Z,3.7
2017-10-03T04:54:30.865Z,4.1
2017-10-03T04:55:32.516Z,3.7
2017-10-03T04:56:34.164Z,3.8
2017-10-03T04:57:35.814Z,3.6
2017-10-03T04:58:37.483Z,4.4
2017-10-03T04:59:39.140Z,4.2
2017-10-03T05:00:40.802Z,4.2
2017-10-03T05:01:42.463Z,4.3
2017-10-03T05:02:44.118Z,4.7
2017-10-03T05:03:45.775Z,4.8
2017-10-03T05:04:47.429Z,4.8
2017-10-03T05:05:49.091Z,4.8
2017-10-03T05:06:50.736Z,4.9
2017-10-03T05:07:52.392Z,5.4
2017-10-03T05:08:54.048Z,4.8
2017-10-03T05:09:55.699Z,4.8
2017-10-03T05:10:57.350Z,5.3
2017-10-03T05:11:59.010Z,5.4
2017-10-03T05:13:00.666Z,5.5
2017-10-03T05:14:02.319Z,5.5
2017-10-03T05:15:03.987Z,6.1
2017-10-03T05:16:05.643Z,5.8
2017-10-03T05:17:07.305Z,5.5
2017-10-03T05:18:08.954Z,5.9
2017-10-03T05:19:10.609Z,6.0
2017-10-03T05:20:12.254Z,6.2
2017-10-03T05:21:13.910Z,6.2
2017-10-03T05:22:15.571Z,6.6
2017-10-03T05:23:17.227Z,7.0
2017-10-03T05:24:18.883Z,7.0
2017-10-03T05:25:20.555Z,7.2
2017-10-03T05:26:22.204Z,7.2
2017-10-03T05:27:23.860Z,7.3
2017-10-03T05:28:25.514Z,7.4
2017-10-03T05:29:27.173Z,7.2
2017-10-03T05:30:28.826Z,8.1
2017-10-03T05:31:30.482Z,8.0
2017-10-03T05:32:32.141Z,9.0
2017-10-03T05:33:33.799Z,8.2
2017-10-03T05:34:35.455Z,8.4
2017-10-03T05:35:37.107Z,8.7
2017-10-03T05:36:38.762Z,9.2
2017-10-03T05:37:40.423Z,8.9
2017-10-03T05:38:42.070Z,9.9
2017-10-03T05:39:43.725Z,8.1
2017-10-03T05:40:45.373Z,9.7
2017-10-03T05:41:47.026Z,9.9
2017-10-03T05:42:48.682Z,10.7
2017-10-03T05:43:50.337Z,10.8
2017-10-03T05:44:51.996Z,10.8
2017-10-03T05:45:53.645Z,9.6
2017-10-03T05:46:55.318Z,9.1
2017-10-03T05:47:56.963Z,8.9
2017-10-03T05:48:58.614Z,8.8
2017-10-03T05:50:00.275Z,16.9
2017-10-03T05:51:01.936Z,12.4
2017-10-03T05:52:04.409Z,11.4
2017-10-03T05:53:06.063Z,13.7
2017-10-03T05:54:07.723Z,12.5
2017-10-03T05:55:09.377Z,10.8
2017-10-03T06:01:26.563Z,9.1
2017-10-03T06:02:28.217Z,11.3
2017-10-03T06:03:29.861Z,11.3
2017-10-03T06:04:31.517Z,12.5
2017-10-03T06:05:33.172Z,13.9
2017-10-03T06:06:34.823Z,13.2
2017-10-03T06:07:36.476Z,13.2
2017-10-03T06:08:38.176Z,13.5
2017-10-03T06:09:39.839Z,12.8
2017-10-03T06:10:41.494Z,12.0
2017-10-03T06:11:43.143Z,13.0
2017-10-03T06:12:44.873Z,11.9
2017-10-03T06:13:46.534Z,12.1
2017-10-03T06:14:48.202Z,12.1
2017-10-03T06:15:49.852Z,11.5
2017-10-03T06:16:51.511Z,14.0
2017-10-03T06:17:53.184Z,12.5
2017-10-03T06:18:54.846Z,11.9
2017-10-03T06:19:56.533Z,12.9
2017-10-03T06:20:58.198Z,12.2
2017-10-03T06:21:59.853Z,12.5
2017-10-03T06:23:01.510Z,14.0
2017-10-03T06:24:03.174Z,14.2
2017-10-03T06:25:04.824Z,12.4
2017-10-03T06:26:06.486Z,14.0
2017-10-03T06:27:08.151Z,13.0
2017-10-03T06:28:09.814Z,10.9
2017-10-03T06:29:11.469Z,10.2
2017-10-03T06:30:13.121Z,10.3
2017-10-03T06:31:14.805Z,11.9
2017-10-03T06:32:16.466Z,17.6
2017-10-03T06:33:18.124Z,20.4
2017-10-03T06:34:19.793Z,17.6
2017-10-03T06:35:21.459Z,15.4
2017-10-03T06:36:23.119Z,12.6
2017-10-03T06:37:24.783Z,12.6
2017-10-03T06:38:26.443Z,11.6
2017-10-03T06:39:28.113Z,10.3
2017-10-03T06:40:29.771Z,12.1
2017-10-03T06:41:31.448Z,11.7
2017-10-03T06:42:33.130Z,11.0
2017-10-03T06:43:34.793Z,11.5
2017-10-03T06:44:36.454Z,10.6
2017-10-03T06:45:38.116Z,11.0
2017-10-03T06:46:39.775Z,11.2
2017-10-03T06:47:41.433Z,11.1
2017-10-03T06:48:43.098Z,11.3
2017-10-03T06:49:44.753Z,11.2
2017-10-03T06:50:46.422Z,11.7
2017-10-03T06:51:48.077Z,10.9
2017-10-03T06:52:49.742Z,11.9
2017-10-03T06:53:51.401Z,11.5
2017-10-03T06:54:53.066Z,11.5
2017-10-03T06:55:54.740Z,13.2
2017-10-03T06:56:56.401Z,13.7
2017-10-03T06:57:58.070Z,17.6
2017-10-03T06:58:59.740Z,14.0
2017-10-03T07:00:01.397Z,10.5
2017-10-03T07:01:03.136Z,10.8
2017-10-03T07:02:04.790Z,9.9
2017-10-03T07:03:06.452Z,8.7
2017-10-03T07:04:08.105Z,7.8
2017-10-03T07:05:09.769Z,8.1
2017-10-03T07:06:11.433Z,7.3
2017-10-03T07:07:13.096Z,7.5
2017-10-03T07:08:14.779Z,7.7
2017-10-03T07:09:16.433Z,7.6
2017-10-03T07:10:18.107Z,7.2
2017-10-03T07:11:19.773Z,8.2
2017-10-03T07:12:21.487Z,8.1
2017-10-03T07:13:23.155Z,9.0
2017-10-03T07:14:24.812Z,8.0
2017-10-03T07:15:26.536Z,7.4
2017-10-03T07:16:28.201Z,7.0
2017-10-03T07:17:29.863Z,6.6
2017-10-03T07:18:31.530Z,7.1
2017-10-03T07:19:33.233Z,6.7
2017-10-03T07:20:34.901Z,7.0
2017-10-03T07:21:36.557Z,7.4
2017-10-03T07:22:38.211Z,7.1
2017-10-03T07:23:39.876Z,7.5
2017-10-03T07:24:41.538Z,7.3
2017-10-03T07:25:43.231Z,7.5
2017-10-03T07:26:44.888Z,6.9
2017-10-03T07:27:46.569Z,8.2
2017-10-03T07:28:48.221Z,7.7
2017-10-03T07:29:49.891Z,7.8
2017-10-03T07:30:51.556Z,6.7
2017-10-03T07:31:53.215Z,7.8
2017-10-03T07:32:54.876Z,8.3
2017-10-03T07:33:56.539Z,7.7
2017-10-03T07:34:58.205Z,8.0
2017-10-03T07:35:59.868Z,7.8
2017-10-03T07:37:01.533Z,8.3
2017-10-03T07:38:03.376Z,8.1
2017-10-03T07:39:05.037Z,7.6
2017-10-03T07:40:06.717Z,7.6
2017-10-03T07:41:08.374Z,8.3
2017-10-03T07:42:10.035Z,8.2
2017-10-03T07:43:11.694Z,8.4
2017-10-03T07:44:13.356Z,7.4
2017-10-03T07:45:15.050Z,8.1
2017-10-03T07:46:16.707Z,8.8
2017-10-03T07:47:18.363Z,8.3
2017-10-03T07:48:20.022Z,8.0
2017-10-03T07:49:21.692Z,8.6
2017-10-03T07:50:23.355Z,7.7
2017-10-03T07:51:25.023Z,7.7
2017-10-03T07:52:26.681Z,8.7
2017-10-03T07:53:28.343Z,8.7
2017-10-03T07:54:30.007Z,8.5
2017-10-03T07:55:31.663Z,8.3
2017-10-03T07:56:33.323Z,8.9
2017-10-03T07:57:34.995Z,8.4
2017-10-03T07:58:36.661Z,8.9
2017-10-03T07:59:38.536Z,8.1
2017-10-03T08:00:40.190Z,8.5
2017-10-03T08:01:41.853Z,9.2
2017-10-03T08:02:43.511Z,7.8
2017-10-03T08:03:45.194Z,7.7
2017-10-03T08:04:46.865Z,7.8
2017-10-03T08:05:48.532Z,7.6
2017-10-03T08:06:50.198Z,7.1
2017-10-03T08:07:51.874Z,7.4
2017-10-03T08:08:53.547Z,7.2
2017-10-03T08:09:55.270Z,7.7
2017-10-03T08:10:56.932Z,7.4
2017-10-03T08:11:58.589Z,7.7
2017-10-03T08:13:00.246Z,6.8
2017-10-03T08:14:01.907Z,7.2
2017-10-03T08:15:03.570Z,7.5
2017-10-03T08:16:05.229Z,6.4
2017-10-03T08:17:06.900Z,7.6
2017-10-03T08:18:08.563Z,7.3
2017-10-03T08:19:10.222Z,7.4
2017-10-03T08:20:12.031Z,6.5
2017-10-03T08:21:13.689Z,6.6
2017-10-03T08:22:15.389Z,5.5
2017-10-03T08:23:17.055Z,6.3
2017-10-03T08:24:18.723Z,6.6
2017-10-03T08:25:20.482Z,6.9
2017-10-03T08:26:22.151Z,6.6
2017-10-03T08:27:23.806Z,6.9
2017-10-03T08:28:25.465Z,7.8
2017-10-03T08:29:27.126Z,7.4
2017-10-03T08:30:28.796Z,9.4
2017-10-03T08:31:32.329Z,12.7
2017-10-03T08:32:34.010Z,11.3
2017-10-03T08:33:35.669Z,8.7
2017-10-03T08:34:37.350Z,7.2
2017-10-03T08:35:39.017Z,6.7
2017-10-03T08:36:40.682Z,6.7
2017-10-03T08:37:42.346Z,8.5
2017-10-03T08:38:44.013Z,6.2
2017-10-03T08:39:45.688Z,6.4
2017-10-03T08:40:47.351Z,7.8
2017-10-03T08:41:49.014Z,9.7
2017-10-03T08:42:50.682Z,6.2
2017-10-03T08:43:52.344Z,7.6
2017-10-03T08:44:54.009Z,8.6
2017-10-03T08:45:55.677Z,8.3
2017-10-03T08:46:57.351Z,6.8
2017-10-03T08:47:59.019Z,6.0
2017-10-03T08:49:00.685Z,6.0
2017-10-03T08:50:02.555Z,6.0
2017-10-03T08:51:04.217Z,6.4
2017-10-03T08:52:05.889Z,6.9
2017-10-03T08:53:07.553Z,6.7
2017-10-03T08:54:09.225Z,8.5
2017-10-03T08:55:10.913Z,7.9
2017-10-03T08:56:12.573Z,7.2
2017-10-03T08:57:14.236Z,7.9
2017-10-03T08:58:15.905Z,8.4
2017-10-03T08:59:17.572Z,6.7
2017-10-03T09:00:19.236Z,7.6
2017-10-03T09:01:20.910Z,8.3
2017-10-03T09:02:22.578Z,7.3
2017-10-03T09:03:24.244Z,6.8
2017-10-03T09:04:25.902Z,7.0
2017-10-03T09:05:27.567Z,7.6
2017-10-03T09:06:29.234Z,7.6
2017-10-03T09:07:30.905Z,7.5
2017-10-03T09:08:32.575Z,7.5
2017-10-03T09:09:34.232Z,6.5
2017-10-03T09:10:35.915Z,7.2
2017-10-03T09:11:37.593Z,7.8
2017-10-03T09:12:39.416Z,6.9
2017-10-03T09:13:41.063Z,8.0
2017-10-03T09:14:42.726Z,7.3
2017-10-03T09:15:44.404Z,8.0
2017-10-03T09:16:46.069Z,7.1
2017-10-03T09:17:47.740Z,7.0
2017-10-03T09:18:49.411Z,7.0
2017-10-03T09:19:51.065Z,7.1
2017-10-03T09:20:52.742Z,8.4
2017-10-03T09:21:54.414Z,8.2
2017-10-03T09:22:56.075Z,8.0
2017-10-03T09:23:57.742Z,7.4
2017-10-03T09:24:59.403Z,6.6
2017-10-03T09:26:01.069Z,7.5
2017-10-03T09:27:02.779Z,6.4
2017-10-03T09:28:04.442Z,6.2
2017-10-03T09:29:06.130Z,6.5
2017-10-03T09:30:07.803Z,6.2
2017-10-03T09:31:09.469Z,5.8
2017-10-03T09:32:11.131Z,6.6
2017-10-03T09:33:12.803Z,6.2
2017-10-03T09:34:14.496Z,6.4
2017-10-03T09:35:16.157Z,6.5
2017-10-03T09:36:17.845Z,8.1
2017-10-03T09:37:19.520Z,7.0
2017-10-03T09:38:21.224Z,6.9
2017-10-03T09:39:22.898Z,6.4
2017-10-03T09:40:24.615Z,6.9
2017-10-03T09:41:26.287Z,7.0
2017-10-03T09:42:27.953Z,7.2
2017-10-03T09:43:29.630Z,7.6
2017-10-03T09:44:31.305Z,7.8
2017-10-03T09:45:32.972Z,6.6
2017-10-03T09:46:34.632Z,6.9
2017-10-03T09:47:36.295Z,6.6
2017-10-03T09:48:37.966Z,5.8
2017-10-03T09:49:39.641Z,6.0
2017-10-03T09:50:41.311Z,6.8
2017-10-03T09:51:42.977Z,6.8
2017-10-03T09:52:44.636Z,6.5
2017-10-03T09:53:46.312Z,6.2
2017-10-03T09:54:47.968Z,6.6
2017-10-03T10:01:00.699Z,7.8
2017-10-03T10:02:02.355Z,9.2
2017-10-03T10:03:04.010Z,7.3
2017-10-03T10:04:05.684Z,6.7
2017-10-03T10:05:07.745Z,13.2
2017-10-03T10:06:09.382Z,11.1
2017-10-03T10:07:11.029Z,9.0
2017-10-03T10:08:12.706Z,7.3
2017-10-03T10:09:14.368Z,8.1
2017-10-03T10:10:16.054Z,10.6
2017-10-03T10:11:17.715Z,9.8
2017-10-03T10:12:19.385Z,6.7
2017-10-03T10:13:21.097Z,6.7
2017-10-03T10:14:22.754Z,7.4
2017-10-03T10:15:24.419Z,7.5
2017-10-03T10:16:26.112Z,7.6
2017-10-03T10:17:27.781Z,10.6
2017-10-03T10:18:29.439Z,17.9
2017-10-03T10:19:31.121Z,21.1
2017-10-03T10:20:32.789Z,15.4
2017-10-03T10:21:34.458Z,9.4
2017-10-03T10:22:36.124Z,8.6
2017-10-03T10:23:37.782Z,7.8
2017-10-03T10:24:39.444Z,8.8
2017-10-03T10:25:41.098Z,7.5
2017-10-03T10:26:42.766Z,6.9
2017-10-03T10:27:44.444Z,5.6
2017-10-03T10:28:46.139Z,7.1
2017-10-03T10:29:47.810Z,7.9
2017-10-03T10:30:49.463Z,7.1
2017-10-03T10:31:51.129Z,7.5
2017-10-03T10:32:52.788Z,7.1
2017-10-03T10:33:54.453Z,7.6
2017-10-03T10:34:56.126Z,7.0
2017-10-03T10:35:57.798Z,6.3
2017-10-03T10:36:59.459Z,6.7
2017-10-03T10:38:01.125Z,7.6
2017-10-03T10:39:02.801Z,6.9
2017-10-03T10:40:04.479Z,7.1
2017-10-03T10:41:06.145Z,7.6
2017-10-03T10:42:07.810Z,7.7
2017-10-03T10:43:09.477Z,8.2
2017-10-03T10:44:11.147Z,7.9
2017-10-03T10:45:12.844Z,6.6
2017-10-03T10:46:14.545Z,6.7
2017-10-03T10:47:16.212Z,7.0
2017-10-03T10:48:17.905Z,6.2
2017-10-03T10:49:19.590Z,7.5
2017-10-03T10:50:21.256Z,7.3
2017-10-03T10:51:22.918Z,6.5
2017-10-03T10:52:24.598Z,6.5
2017-10-03T10:53:26.253Z,6.1
2017-10-03T10:54:27.918Z,6.2
2017-10-03T10:55:29.576Z,6.7
2017-10-03T10:56:31.248Z,7.3
2017-10-03T10:57:32.929Z,6.3
2017-10-03T10:58:34.601Z,6.9
2017-10-03T10:59:36.272Z,7.1
2017-10-03T11:00:37.930Z,7.4
2017-10-03T11:01:39.587Z,7.8
2017-10-03T11:02:41.245Z,6.7
2017-10-03T11:03:42.920Z,6.7
2017-10-03T11:04:44.587Z,7.4
2017-10-03T11:05:46.269Z,6.6
2017-10-03T11:06:47.931Z,6.7
2017-10-03T11:07:49.604Z,5.6
2017-10-03T11:08:51.272Z,6.1
2017-10-03T11:09:52.944Z,5.7
2017-10-03T11:10:54.620Z,5.9
2017-10-03T11:11:56.284Z,5.5
2017-10-03T11:12:57.946Z,6.4
2017-10-03T11:13:59.611Z,5.8
2017-10-03T11:15:01.272Z,5.3
2017-10-03T11:16:02.947Z,5.4
2017-10-03T11:17:04.673Z,5.6
2017-10-03T11:18:06.389Z,5.3
2017-10-03T11:19:08.055Z,4.9
2017-10-03T11:20:09.727Z,5.4
2017-10-03T11:21:11.395Z,5.9
2017-10-03T11:22:13.074Z,5.0
2017-10-03T11:23:14.771Z,4.8
2017-10-03T11:24:16.438Z,4.6
2017-10-03T11:25:18.114Z,5.6
2017-10-03T11:26:19.798Z,4.6
2017-10-03T11:27:21.537Z,4.9
2017-10-03T11:28:23.207Z,4.6
2017-10-03T11:29:24.888Z,5.2
2017-10-03T11:30:26.547Z,5.3
2017-10-03T11:31:28.215Z,5.1
2017-10-03T11:32:29.880Z,4.7
2017-10-03T11:33:31.584Z,4.9
2017-10-03T11:34:33.244Z,5.3
2017-10-03T11:35:34.909Z,4.8
2017-10-03T11:36:36.574Z,5.3
2017-10-03T11:37:38.238Z,5.9
2017-10-03T11:38:39.915Z,6.7
2017-10-03T11:39:41.578Z,6.2
2017-10-03T11:40:43.264Z,6.6
2017-10-03T11:41:44.934Z,5.9
2017-10-03T11:42:46.598Z,6.5
2017-10-03T11:43:48.264Z,6.4
2017-10-03T11:44:49.971Z,7.6
2017-10-03T11:45:51.649Z,8.5
2017-10-03T11:46:53.321Z,11.4
2017-10-03T11:47:54.994Z,7.4
2017-10-03T11:48:56.661Z,10.3
2017-10-03T11:49:58.363Z,9.8
2017-10-03T11:51:00.031Z,8.7
2017-10-03T11:52:01.695Z,7.8
2017-10-03T11:53:03.362Z,7.3
2017-10-03T11:54:05.030Z,7.1
2017-10-03T11:55:06.696Z,8.2
2017-10-03T11:56:08.988Z,7.0
2017-10-03T11:57:10.597Z,8.0
2017-10-03T11:58:12.266Z,7.6
2017-10-03T11:59:13.943Z,7.4
2017-10-03T12:00:15.638Z,7.1
2017-10-03T12:01:17.304Z,7.4
2017-10-03T12:02:18.962Z,7.0
2017-10-03T12:03:21.070Z,8.4
2017-10-03T12:04:22.741Z,7.1
2017-10-03T12:05:24.413Z,5.9
2017-10-03T12:06:26.084Z,11.6
2017-10-03T12:07:27.749Z,14.1
2017-10-03T12:08:29.417Z,15.7
2017-10-03T12:09:31.088Z,7.6
2017-10-03T12:10:32.766Z,17.3
2017-10-03T12:11:34.442Z,33.8
2017-10-03T12:12:36.117Z,28.3
2017-10-03T12:13:37.798Z,8.7
2017-10-03T12:14:39.457Z,7.3
2017-10-03T12:15:41.305Z,9.3
2017-10-03T12:16:42.985Z,14.9
2017-10-03T12:17:44.800Z,8.5
2017-10-03T12:18:46.463Z,5.8
2017-10-03T12:19:48.134Z,4.7
2017-10-03T12:20:49.816Z,6.2
2017-10-03T12:21:51.507Z,5.3
2017-10-03T12:22:53.221Z,12.8
2017-10-03T12:23:54.890Z,13.5
2017-10-03T12:24:56.588Z,9.7
2017-10-03T12:25:58.356Z,6.2
2017-10-03T12:27:00.025Z,6.8
2017-10-03T12:28:01.694Z,9.8
2017-10-03T12:29:03.354Z,9.6
2017-10-03T12:30:05.029Z,6.4
2017-10-03T12:31:06.696Z,9.4
2017-10-03T12:32:08.376Z,9.1
2017-10-03T12:33:10.041Z,8.2
2017-10-03T12:34:11.720Z,8.2
2017-10-03T12:35:13.394Z,8.1
2017-10-03T12:36:15.092Z,10.0
2017-10-03T12:37:16.780Z,6.3
2017-10-03T12:38:18.451Z,5.7
2017-10-03T12:39:20.161Z,9.2
2017-10-03T12:40:21.826Z,6.8
2017-10-03T12:41:23.499Z,5.3
2017-10-03T12:42:25.165Z,4.3
2017-10-03T12:43:26.843Z,3.9
2017-10-03T12:44:28.514Z,3.9
2017-10-03T12:45:30.188Z,3.3
2017-10-03T12:46:31.855Z,3.6
2017-10-03T12:47:33.514Z,4.2
2017-10-03T12:48:35.184Z,4.7
2017-10-03T12:49:36.846Z,3.7
2017-10-03T12:50:38.512Z,3.7
2017-10-03T12:51:40.184Z,3.9
2017-10-03T12:52:41.856Z,3.8
2017-10-03T12:53:43.541Z,3.3
2017-10-03T12:54:45.209Z,3.6
2017-10-03T12:55:46.879Z,3.8
2017-10-03T12:56:48.555Z,3.9
2017-10-03T12:57:50.225Z,3.7
2017-10-03T12:58:51.889Z,3.9
2017-10-03T12:59:54.112Z,4.2
2017-10-03T13:00:55.776Z,3.6
2017-10-03T13:01:57.467Z,3.2
2017-10-03T13:02:59.130Z,3.4
2017-10-03T13:04:00.806Z,3.6
2017-10-03T13:05:02.477Z,3.8
2017-10-03T13:06:04.153Z,3.5
2017-10-03T13:07:05.825Z,3.8
2017-10-03T13:08:07.537Z,3.7
2017-10-03T13:09:09.284Z,3.8
2017-10-03T13:10:11.814Z,3.8
2017-10-03T13:11:13.501Z,3.7
2017-10-03T13:12:15.218Z,3.5
2017-10-03T13:13:16.925Z,3.4
2017-10-03T13:14:18.637Z,3.6
2017-10-03T13:15:20.305Z,3.4
2017-10-03T13:16:21.969Z,3.4
2017-10-03T13:17:24.933Z,3.5
2017-10-03T13:18:26.609Z,3.4
2017-10-03T13:19:28.291Z,3.5
2017-10-03T13:20:29.964Z,3.3
2017-10-03T13:21:31.640Z,3.1
2017-10-03T13:22:33.304Z,2.8
2017-10-03T13:23:34.986Z,3.4
2017-10-03T13:24:36.739Z,3.4
2017-10-03T13:25:38.415Z,3.4
2017-10-03T13:26:40.156Z,3.6
2017-10-03T13:27:41.815Z,3.1
2017-10-03T13:28:43.481Z,3.3
2017-10-03T13:29:45.146Z,4.0
2017-10-03T13:30:46.815Z,4.1
2017-10-03T13:31:48.482Z,3.6
2017-10-03T13:32:50.144Z,2.8
2017-10-03T13:33:51.810Z,3.5
2017-10-03T13:34:53.481Z,3.5
2017-10-03T13:35:55.143Z,3.2
2017-10-03T13:36:56.854Z,3.3
2017-10-03T13:37:58.519Z,3.4
2017-10-03T13:39:00.190Z,3.3
2017-10-03T13:40:01.879Z,3.0
2017-10-03T13:41:03.545Z,2.9
2017-10-03T13:42:05.223Z,3.2
2017-10-03T13:43:06.891Z,3.2
2017-10-03T13:44:08.556Z,3.3
2017-10-03T13:45:10.216Z,3.2
2017-10-03T13:46:11.880Z,3.4
2017-10-03T13:47:13.545Z,3.1
2017-10-03T13:48:15.242Z,3.1
2017-10-03T13:49:16.910Z,3.7
2017-10-03T13:50:18.578Z,3.2
2017-10-03T13:51:20.261Z,3.4
2017-10-03T13:52:21.933Z,3.2
2017-10-03T13:53:23.606Z,3.3
2017-10-03T13:54:25.271Z,2.9
2017-10-03T13:55:26.942Z,2.9
2017-10-03T14:01:49.808Z,3.2
2017-10-03T14:02:51.473Z,3.6
2017-10-03T14:04:43.427Z,3.6
2017-10-03T14:05:45.089Z,3.5
2017-10-03T14:06:46.765Z,3.4
2017-10-03T14:07:48.428Z,3.0
2017-10-03T14:08:50.100Z,3.1
2017-10-03T14:09:51.809Z,3.2
2017-10-03T14:10:53.469Z,3.6
2017-10-03T14:11:55.254Z,3.7
2017-10-03T14:12:56.921Z,3.4
2017-10-03T14:13:58.581Z,3.6
2017-10-03T14:15:00.250Z,3.4
2017-10-03T14:16:02.561Z,3.3
2017-10-03T14:17:04.202Z,3.5
2017-10-03T14:18:05.872Z,3.1
2017-10-03T14:19:07.551Z,3.5
2017-10-03T14:20:09.215Z,3.1
2017-10-03T14:21:10.925Z,3.5
2017-10-03T14:22:12.591Z,3.4
2017-10-03T14:23:14.257Z,3.5
2017-10-03T14:24:15.916Z,3.5
2017-10-03T14:25:17.579Z,3.4
2017-10-03T14:26:19.269Z,3.3
2017-10-03T14:27:20.951Z,3.4
2017-10-03T14:28:23.296Z,3.7